sensor_id;sensor_type;location;lat;lon;timestamp;P1;durP1;ratioP1;P2;durP2;ratioP2
61640;SDS011;62201;49.966;8.342;2023-07-16T00:00:57;9.90;;;2.83;;
61640;SDS011;62201;49.966;8.342;2023-07-16T00:03:22;13.20;;;2.33;;
61640;SDS011;62201;49.966;8.342;2023-07-16T00:05:51;4.68;;;2.30;;
61640;SDS011;62201;49.966;8.342;2023-07-16T00:08:16;3.92;;;2.03;;
61640;SDS011;62201;49.966;8.342;2023-07-16T00:10:42;3.70;;;2.05;;
61640;SDS011;62201;49.966;8.342;2023-07-16T00:13:07;6.20;;;2.50;;
61640;SDS011;62201;49.966;8.342;2023-07-16T00:15:33;8.02;;;2.40;;
61640;SDS011;62201;49.966;8.342;2023-07-16T00:17:58;4.90;;;1.95;;
61640;SDS011;62201;49.966;8.342;2023-07-16T00:20:24;6.28;;;1.67;;
61640;SDS011;62201;49.966;8.342;2023-07-16T00:22:50;5.28;;;1.75;;
61640;SDS011;62201;49.966;8.342;2023-07-16T00:25:15;8.02;;;1.67;;
61640;SDS011;62201;49.966;8.342;2023-07-16T00:27:41;5.22;;;1.88;;
61640;SDS011;62201;49.966;8.342;2023-07-16T00:30:07;6.05;;;1.40;;
61640;SDS011;62201;49.966;8.342;2023-07-16T00:32:32;4.63;;;1.42;;
61640;SDS011;62201;49.966;8.342;2023-07-16T00:34:58;3.97;;;1.50;;
61640;SDS011;62201;49.966;8.342;2023-07-16T00:37:24;3.08;;;1.55;;
61640;SDS011;62201;49.966;8.342;2023-07-16T00:39:49;6.72;;;1.60;;
61640;SDS011;62201;49.966;8.342;2023-07-16T00:42:15;6.40;;;1.95;;
61640;SDS011;62201;49.966;8.342;2023-07-16T00:44:40;5.28;;;1.80;;
61640;SDS011;62201;49.966;8.342;2023-07-16T00:47:05;3.60;;;1.70;;
61640;SDS011;62201;49.966;8.342;2023-07-16T00:49:31;3.78;;;1.50;;
61640;SDS011;62201;49.966;8.342;2023-07-16T00:51:57;6.57;;;1.63;;
61640;SDS011;62201;49.966;8.342;2023-07-16T00:54:24;5.30;;;1.63;;
61640;SDS011;62201;49.966;8.342;2023-07-16T00:56:49;4.85;;;1.80;;
61640;SDS011;62201;49.966;8.342;2023-07-16T00:59:15;4.03;;;1.88;;
61640;SDS011;62201;49.966;8.342;2023-07-16T01:01:41;5.65;;;1.80;;
61640;SDS011;62201;49.966;8.342;2023-07-16T01:04:06;3.40;;;1.55;;
61640;SDS011;62201;49.966;8.342;2023-07-16T01:06:33;9.32;;;2.20;;
61640;SDS011;62201;49.966;8.342;2023-07-16T01:09:07;3.92;;;1.73;;
61640;SDS011;62201;49.966;8.342;2023-07-16T01:11:39;4.63;;;1.65;;
61640;SDS011;62201;49.966;8.342;2023-07-16T01:14:07;5.30;;;1.90;;
61640;SDS011;62201;49.966;8.342;2023-07-16T01:16:33;10.77;;;2.00;;
61640;SDS011;62201;49.966;8.342;2023-07-16T01:18:59;6.25;;;1.90;;
61640;SDS011;62201;49.966;8.342;2023-07-16T01:21:24;6.43;;;1.70;;
61640;SDS011;62201;49.966;8.342;2023-07-16T01:24:21;5.30;;;1.80;;
61640;SDS011;62201;49.966;8.342;2023-07-16T01:33:35;3.75;;;1.70;;
61640;SDS011;62201;49.966;8.342;2023-07-16T01:36:03;6.85;;;1.73;;
61640;SDS011;62201;49.966;8.342;2023-07-16T01:38:29;5.15;;;1.75;;
61640;SDS011;62201;49.966;8.342;2023-07-16T01:40:54;3.03;;;1.50;;
61640;SDS011;62201;49.966;8.342;2023-07-16T01:43:20;4.60;;;1.67;;
61640;SDS011;62201;49.966;8.342;2023-07-16T01:45:45;5.47;;;1.63;;
61640;SDS011;62201;49.966;8.342;2023-07-16T01:48:16;3.03;;;1.40;;
61640;SDS011;62201;49.966;8.342;2023-07-16T01:51:01;3.92;;;1.52;;
61640;SDS011;62201;49.966;8.342;2023-07-16T01:53:27;3.47;;;1.23;;
61640;SDS011;62201;49.966;8.342;2023-07-16T01:55:52;7.50;;;1.40;;
61640;SDS011;62201;49.966;8.342;2023-07-16T01:58:18;7.53;;;1.40;;
61640;SDS011;62201;49.966;8.342;2023-07-16T02:00:43;4.70;;;1.50;;
61640;SDS011;62201;49.966;8.342;2023-07-16T02:03:09;5.70;;;1.98;;
61640;SDS011;62201;49.966;8.342;2023-07-16T02:05:34;8.18;;;1.58;;
61640;SDS011;62201;49.966;8.342;2023-07-16T02:07:59;10.38;;;1.80;;
61640;SDS011;62201;49.966;8.342;2023-07-16T02:10:25;8.18;;;1.50;;
61640;SDS011;62201;49.966;8.342;2023-07-16T02:12:51;3.38;;;1.23;;
61640;SDS011;62201;49.966;8.342;2023-07-16T02:15:16;4.25;;;1.48;;
61640;SDS011;62201;49.966;8.342;2023-07-16T02:17:42;9.30;;;1.75;;
61640;SDS011;62201;49.966;8.342;2023-07-16T02:20:08;4.20;;;1.60;;
61640;SDS011;62201;49.966;8.342;2023-07-16T02:22:35;4.38;;;1.40;;
61640;SDS011;62201;49.966;8.342;2023-07-16T02:25:01;9.70;;;1.60;;
61640;SDS011;62201;49.966;8.342;2023-07-16T02:27:27;2.42;;;1.40;;
61640;SDS011;62201;49.966;8.342;2023-07-16T02:29:52;6.30;;;1.73;;
61640;SDS011;62201;49.966;8.342;2023-07-16T02:32:18;7.28;;;1.63;;
61640;SDS011;62201;49.966;8.342;2023-07-16T02:34:43;6.53;;;1.70;;
61640;SDS011;62201;49.966;8.342;2023-07-16T02:37:09;6.88;;;2.00;;
61640;SDS011;62201;49.966;8.342;2023-07-16T02:39:34;5.68;;;1.98;;
61640;SDS011;62201;49.966;8.342;2023-07-16T02:42:00;3.97;;;2.22;;
61640;SDS011;62201;49.966;8.342;2023-07-16T02:44:25;9.32;;;2.40;;
61640;SDS011;62201;49.966;8.342;2023-07-16T02:46:51;6.50;;;1.90;;
61640;SDS011;62201;49.966;8.342;2023-07-16T02:49:16;4.63;;;1.80;;
61640;SDS011;62201;49.966;8.342;2023-07-16T02:51:42;6.32;;;1.90;;
61640;SDS011;62201;49.966;8.342;2023-07-16T02:54:07;5.20;;;2.22;;
61640;SDS011;62201;49.966;8.342;2023-07-16T02:56:33;7.55;;;1.95;;
61640;SDS011;62201;49.966;8.342;2023-07-16T02:58:59;6.75;;;2.08;;
61640;SDS011;62201;49.966;8.342;2023-07-16T03:01:24;12.05;;;2.53;;
61640;SDS011;62201;49.966;8.342;2023-07-16T03:03:49;10.02;;;2.22;;
61640;SDS011;62201;49.966;8.342;2023-07-16T03:06:15;8.05;;;2.20;;
61640;SDS011;62201;49.966;8.342;2023-07-16T03:08:40;7.30;;;2.35;;
61640;SDS011;62201;49.966;8.342;2023-07-16T03:11:06;7.10;;;2.38;;
61640;SDS011;62201;49.966;8.342;2023-07-16T03:13:31;5.13;;;2.20;;
61640;SDS011;62201;49.966;8.342;2023-07-16T03:15:56;4.95;;;2.25;;
61640;SDS011;62201;49.966;8.342;2023-07-16T03:18:22;9.00;;;2.60;;
61640;SDS011;62201;49.966;8.342;2023-07-16T03:20:47;6.60;;;2.40;;
61640;SDS011;62201;49.966;8.342;2023-07-16T03:23:13;8.07;;;2.42;;
61640;SDS011;62201;49.966;8.342;2023-07-16T03:25:38;9.90;;;2.30;;
61640;SDS011;62201;49.966;8.342;2023-07-16T03:28:04;8.23;;;2.72;;
61640;SDS011;62201;49.966;8.342;2023-07-16T03:30:32;9.15;;;2.67;;
61640;SDS011;62201;49.966;8.342;2023-07-16T03:32:58;10.10;;;2.40;;
61640;SDS011;62201;49.966;8.342;2023-07-16T03:35:23;8.13;;;2.50;;
61640;SDS011;62201;49.966;8.342;2023-07-16T03:37:48;11.68;;;2.50;;
61640;SDS011;62201;49.966;8.342;2023-07-16T03:40:15;6.65;;;2.13;;
61640;SDS011;62201;49.966;8.342;2023-07-16T03:42:41;6.70;;;2.70;;
61640;SDS011;62201;49.966;8.342;2023-07-16T03:45:07;10.57;;;3.00;;
61640;SDS011;62201;49.966;8.342;2023-07-16T03:47:34;7.85;;;2.67;;
61640;SDS011;62201;49.966;8.342;2023-07-16T03:49:59;12.55;;;2.58;;
61640;SDS011;62201;49.966;8.342;2023-07-16T03:52:24;14.30;;;2.55;;
61640;SDS011;62201;49.966;8.342;2023-07-16T03:54:51;9.40;;;2.33;;
61640;SDS011;62201;49.966;8.342;2023-07-16T03:57:16;5.82;;;2.03;;
61640;SDS011;62201;49.966;8.342;2023-07-16T03:59:42;7.90;;;2.88;;
61640;SDS011;62201;49.966;8.342;2023-07-16T04:02:07;9.70;;;2.67;;
61640;SDS011;62201;49.966;8.342;2023-07-16T04:04:33;5.57;;;2.20;;
61640;SDS011;62201;49.966;8.342;2023-07-16T04:06:59;13.35;;;2.65;;
61640;SDS011;62201;49.966;8.342;2023-07-16T04:09:24;8.20;;;2.30;;
61640;SDS011;62201;49.966;8.342;2023-07-16T04:11:49;10.90;;;2.35;;
61640;SDS011;62201;49.966;8.342;2023-07-16T04:14:15;10.07;;;2.20;;
61640;SDS011;62201;49.966;8.342;2023-07-16T04:16:40;6.32;;;2.45;;
61640;SDS011;62201;49.966;8.342;2023-07-16T04:19:05;11.90;;;2.67;;
61640;SDS011;62201;49.966;8.342;2023-07-16T04:21:32;9.23;;;2.20;;
61640;SDS011;62201;49.966;8.342;2023-07-16T04:23:57;7.53;;;3.00;;
61640;SDS011;62201;49.966;8.342;2023-07-16T04:26:23;9.52;;;2.55;;
61640;SDS011;62201;49.966;8.342;2023-07-16T04:28:48;8.43;;;2.03;;
61640;SDS011;62201;49.966;8.342;2023-07-16T04:31:13;6.10;;;2.22;;
61640;SDS011;62201;49.966;8.342;2023-07-16T04:33:39;11.60;;;2.20;;
61640;SDS011;62201;49.966;8.342;2023-07-16T04:36:04;10.65;;;2.45;;
61640;SDS011;62201;49.966;8.342;2023-07-16T04:38:30;12.73;;;2.40;;
61640;SDS011;62201;49.966;8.342;2023-07-16T04:40:55;10.32;;;2.17;;
61640;SDS011;62201;49.966;8.342;2023-07-16T04:43:20;9.02;;;2.58;;
61640;SDS011;62201;49.966;8.342;2023-07-16T04:45:46;10.18;;;2.40;;
61640;SDS011;62201;49.966;8.342;2023-07-16T04:48:12;9.77;;;2.80;;
61640;SDS011;62201;49.966;8.342;2023-07-16T04:50:38;14.63;;;2.15;;
61640;SDS011;62201;49.966;8.342;2023-07-16T04:53:03;10.05;;;2.42;;
61640;SDS011;62201;49.966;8.342;2023-07-16T04:55:29;7.43;;;2.03;;
61640;SDS011;62201;49.966;8.342;2023-07-16T04:57:54;7.88;;;2.17;;
61640;SDS011;62201;49.966;8.342;2023-07-16T05:00:21;10.43;;;2.05;;
61640;SDS011;62201;49.966;8.342;2023-07-16T05:02:47;10.00;;;3.13;;
61640;SDS011;62201;49.966;8.342;2023-07-16T05:05:13;8.32;;;2.22;;
61640;SDS011;62201;49.966;8.342;2023-07-16T05:07:38;10.45;;;2.58;;
61640;SDS011;62201;49.966;8.342;2023-07-16T05:10:04;7.47;;;2.00;;
61640;SDS011;62201;49.966;8.342;2023-07-16T05:12:29;12.38;;;2.30;;
61640;SDS011;62201;49.966;8.342;2023-07-16T05:14:55;9.68;;;2.28;;
61640;SDS011;62201;49.966;8.342;2023-07-16T05:17:20;12.30;;;2.17;;
61640;SDS011;62201;49.966;8.342;2023-07-16T05:19:45;9.15;;;2.05;;
61640;SDS011;62201;49.966;8.342;2023-07-16T05:22:11;6.85;;;2.30;;
61640;SDS011;62201;49.966;8.342;2023-07-16T05:24:36;10.80;;;2.13;;
61640;SDS011;62201;49.966;8.342;2023-07-16T05:27:02;14.07;;;2.72;;
61640;SDS011;62201;49.966;8.342;2023-07-16T05:29:27;9.45;;;2.17;;
61640;SDS011;62201;49.966;8.342;2023-07-16T05:31:53;12.15;;;2.17;;
61640;SDS011;62201;49.966;8.342;2023-07-16T05:34:18;10.15;;;2.78;;
61640;SDS011;62201;49.966;8.342;2023-07-16T05:36:43;9.75;;;2.28;;
61640;SDS011;62201;49.966;8.342;2023-07-16T05:39:12;11.35;;;2.45;;
61640;SDS011;62201;49.966;8.342;2023-07-16T05:41:40;8.27;;;2.45;;
61640;SDS011;62201;49.966;8.342;2023-07-16T05:44:06;9.50;;;2.47;;
61640;SDS011;62201;49.966;8.342;2023-07-16T05:46:32;9.43;;;2.35;;
61640;SDS011;62201;49.966;8.342;2023-07-16T05:48:58;8.93;;;2.78;;
61640;SDS011;62201;49.966;8.342;2023-07-16T05:51:23;7.40;;;2.65;;
61640;SDS011;62201;49.966;8.342;2023-07-16T05:53:49;12.10;;;2.30;;
61640;SDS011;62201;49.966;8.342;2023-07-16T05:56:14;10.32;;;2.20;;
61640;SDS011;62201;49.966;8.342;2023-07-16T05:58:40;7.28;;;2.22;;
61640;SDS011;62201;49.966;8.342;2023-07-16T06:01:06;5.15;;;2.20;;
61640;SDS011;62201;49.966;8.342;2023-07-16T06:03:31;8.52;;;2.70;;
61640;SDS011;62201;49.966;8.342;2023-07-16T06:05:56;11.90;;;2.67;;
61640;SDS011;62201;49.966;8.342;2023-07-16T06:08:22;7.38;;;2.10;;
61640;SDS011;62201;49.966;8.342;2023-07-16T06:10:49;9.65;;;3.08;;
61640;SDS011;62201;49.966;8.342;2023-07-16T06:13:15;10.32;;;2.60;;
61640;SDS011;62201;49.966;8.342;2023-07-16T06:15:40;6.38;;;2.13;;
61640;SDS011;62201;49.966;8.342;2023-07-16T06:18:06;10.02;;;3.00;;
61640;SDS011;62201;49.966;8.342;2023-07-16T06:20:31;10.45;;;2.22;;
61640;SDS011;62201;49.966;8.342;2023-07-16T06:22:57;10.18;;;2.67;;
61640;SDS011;62201;49.966;8.342;2023-07-16T06:25:22;7.63;;;2.30;;
61640;SDS011;62201;49.966;8.342;2023-07-16T06:27:47;10.23;;;2.55;;
61640;SDS011;62201;49.966;8.342;2023-07-16T06:30:13;10.23;;;2.90;;
61640;SDS011;62201;49.966;8.342;2023-07-16T06:32:38;11.88;;;2.63;;
61640;SDS011;62201;49.966;8.342;2023-07-16T06:35:04;9.02;;;2.72;;
61640;SDS011;62201;49.966;8.342;2023-07-16T06:37:29;9.05;;;2.78;;
61640;SDS011;62201;49.966;8.342;2023-07-16T06:39:54;8.13;;;2.20;;
61640;SDS011;62201;49.966;8.342;2023-07-16T06:42:20;9.18;;;2.70;;
61640;SDS011;62201;49.966;8.342;2023-07-16T06:44:45;9.95;;;2.45;;
61640;SDS011;62201;49.966;8.342;2023-07-16T06:47:11;8.35;;;3.00;;
61640;SDS011;62201;49.966;8.342;2023-07-16T06:49:36;11.50;;;3.15;;
61640;SDS011;62201;49.966;8.342;2023-07-16T06:52:01;9.30;;;2.65;;
61640;SDS011;62201;49.966;8.342;2023-07-16T06:54:27;15.52;;;3.05;;
61640;SDS011;62201;49.966;8.342;2023-07-16T06:56:52;9.10;;;2.60;;
61640;SDS011;62201;49.966;8.342;2023-07-16T06:59:18;8.07;;;2.60;;
61640;SDS011;62201;49.966;8.342;2023-07-16T07:01:43;10.20;;;2.72;;
61640;SDS011;62201;49.966;8.342;2023-07-16T07:04:09;10.68;;;2.80;;
61640;SDS011;62201;49.966;8.342;2023-07-16T07:06:34;9.27;;;2.78;;
61640;SDS011;62201;49.966;8.342;2023-07-16T07:08:59;9.30;;;2.92;;
61640;SDS011;62201;49.966;8.342;2023-07-16T07:11:25;10.18;;;2.70;;
61640;SDS011;62201;49.966;8.342;2023-07-16T07:13:51;9.80;;;2.80;;
61640;SDS011;62201;49.966;8.342;2023-07-16T07:16:17;7.95;;;2.38;;
61640;SDS011;62201;49.966;8.342;2023-07-16T07:18:42;18.15;;;3.30;;
61640;SDS011;62201;49.966;8.342;2023-07-16T07:21:08;9.45;;;2.65;;
61640;SDS011;62201;49.966;8.342;2023-07-16T07:23:33;7.90;;;2.30;;
61640;SDS011;62201;49.966;8.342;2023-07-16T07:25:59;9.02;;;2.65;;
61640;SDS011;62201;49.966;8.342;2023-07-16T07:28:24;10.90;;;3.00;;
61640;SDS011;62201;49.966;8.342;2023-07-16T07:30:50;9.32;;;2.95;;
61640;SDS011;62201;49.966;8.342;2023-07-16T07:33:16;9.75;;;2.70;;
61640;SDS011;62201;49.966;8.342;2023-07-16T07:35:41;9.40;;;2.58;;
61640;SDS011;62201;49.966;8.342;2023-07-16T07:38:06;7.50;;;2.70;;
61640;SDS011;62201;49.966;8.342;2023-07-16T07:40:32;7.80;;;2.88;;
61640;SDS011;62201;49.966;8.342;2023-07-16T07:42:57;5.35;;;2.00;;
61640;SDS011;62201;49.966;8.342;2023-07-16T07:45:23;10.70;;;2.88;;
61640;SDS011;62201;49.966;8.342;2023-07-16T07:47:49;7.93;;;2.60;;
61640;SDS011;62201;49.966;8.342;2023-07-16T07:50:14;10.77;;;2.65;;
61640;SDS011;62201;49.966;8.342;2023-07-16T07:52:40;10.38;;;2.60;;
61640;SDS011;62201;49.966;8.342;2023-07-16T07:55:05;9.10;;;2.88;;
61640;SDS011;62201;49.966;8.342;2023-07-16T07:57:31;9.93;;;2.75;;
61640;SDS011;62201;49.966;8.342;2023-07-16T07:59:56;11.00;;;2.92;;
61640;SDS011;62201;49.966;8.342;2023-07-16T08:02:23;8.32;;;3.25;;
61640;SDS011;62201;49.966;8.342;2023-07-16T08:04:54;6.22;;;2.45;;
61640;SDS011;62201;49.966;8.342;2023-07-16T08:07:20;7.10;;;2.60;;
61640;SDS011;62201;49.966;8.342;2023-07-16T08:09:46;9.23;;;3.00;;
61640;SDS011;62201;49.966;8.342;2023-07-16T08:12:12;11.05;;;2.78;;
61640;SDS011;62201;49.966;8.342;2023-07-16T08:14:38;12.27;;;2.63;;
61640;SDS011;62201;49.966;8.342;2023-07-16T08:17:04;10.05;;;2.60;;
61640;SDS011;62201;49.966;8.342;2023-07-16T08:19:30;9.80;;;2.90;;
61640;SDS011;62201;49.966;8.342;2023-07-16T08:21:55;6.53;;;2.67;;
61640;SDS011;62201;49.966;8.342;2023-07-16T08:24:20;15.00;;;2.85;;
61640;SDS011;62201;49.966;8.342;2023-07-16T08:26:46;6.75;;;2.55;;
61640;SDS011;62201;49.966;8.342;2023-07-16T08:29:11;9.93;;;3.17;;
61640;SDS011;62201;49.966;8.342;2023-07-16T08:31:36;6.45;;;2.25;;
61640;SDS011;62201;49.966;8.342;2023-07-16T08:34:02;11.95;;;2.40;;
61640;SDS011;62201;49.966;8.342;2023-07-16T08:36:27;11.30;;;2.60;;
61640;SDS011;62201;49.966;8.342;2023-07-16T08:38:53;9.30;;;2.97;;
61640;SDS011;62201;49.966;8.342;2023-07-16T08:41:18;7.13;;;2.13;;
61640;SDS011;62201;49.966;8.342;2023-07-16T08:43:47;6.72;;;2.25;;
61640;SDS011;62201;49.966;8.342;2023-07-16T08:46:13;9.82;;;2.83;;
61640;SDS011;62201;49.966;8.342;2023-07-16T08:48:40;8.43;;;2.42;;
61640;SDS011;62201;49.966;8.342;2023-07-16T08:51:05;7.22;;;2.40;;
61640;SDS011;62201;49.966;8.342;2023-07-16T08:53:32;8.23;;;2.75;;
61640;SDS011;62201;49.966;8.342;2023-07-16T08:55:57;6.35;;;2.42;;
61640;SDS011;62201;49.966;8.342;2023-07-16T08:58:23;9.30;;;2.47;;
61640;SDS011;62201;49.966;8.342;2023-07-16T09:00:49;12.90;;;3.35;;
61640;SDS011;62201;49.966;8.342;2023-07-16T09:03:16;7.15;;;2.75;;
61640;SDS011;62201;49.966;8.342;2023-07-16T09:05:41;8.93;;;2.40;;
61640;SDS011;62201;49.966;8.342;2023-07-16T09:08:08;7.55;;;2.55;;
61640;SDS011;62201;49.966;8.342;2023-07-16T09:10:34;9.57;;;2.60;;
61640;SDS011;62201;49.966;8.342;2023-07-16T09:13:00;8.32;;;2.30;;
61640;SDS011;62201;49.966;8.342;2023-07-16T09:15:25;5.28;;;2.20;;
61640;SDS011;62201;49.966;8.342;2023-07-16T09:17:53;7.22;;;2.38;;
61640;SDS011;62201;49.966;8.342;2023-07-16T09:20:18;4.95;;;2.42;;
61640;SDS011;62201;49.966;8.342;2023-07-16T09:22:44;5.38;;;2.30;;
61640;SDS011;62201;49.966;8.342;2023-07-16T09:25:10;6.60;;;2.35;;
61640;SDS011;62201;49.966;8.342;2023-07-16T09:27:36;7.00;;;2.80;;
61640;SDS011;62201;49.966;8.342;2023-07-16T09:30:05;9.40;;;2.38;;
61640;SDS011;62201;49.966;8.342;2023-07-16T09:32:35;7.45;;;2.38;;
61640;SDS011;62201;49.966;8.342;2023-07-16T09:35:07;6.95;;;2.50;;
61640;SDS011;62201;49.966;8.342;2023-07-16T09:37:36;8.73;;;2.65;;
61640;SDS011;62201;49.966;8.342;2023-07-16T09:40:03;6.75;;;2.70;;
61640;SDS011;62201;49.966;8.342;2023-07-16T09:42:37;8.20;;;2.97;;
61640;SDS011;62201;49.966;8.342;2023-07-16T09:45:07;8.38;;;2.30;;
61640;SDS011;62201;49.966;8.342;2023-07-16T09:47:36;5.30;;;2.38;;
61640;SDS011;62201;49.966;8.342;2023-07-16T09:50:02;9.52;;;2.60;;
61640;SDS011;62201;49.966;8.342;2023-07-16T09:52:29;8.48;;;2.67;;
61640;SDS011;62201;49.966;8.342;2023-07-16T09:54:56;6.32;;;2.50;;
61640;SDS011;62201;49.966;8.342;2023-07-16T09:57:23;9.60;;;2.45;;
61640;SDS011;62201;49.966;8.342;2023-07-16T09:59:51;6.25;;;2.70;;
61640;SDS011;62201;49.966;8.342;2023-07-16T10:02:18;9.77;;;2.42;;
61640;SDS011;62201;49.966;8.342;2023-07-16T10:04:45;7.63;;;2.63;;
61640;SDS011;62201;49.966;8.342;2023-07-16T10:07:21;6.03;;;2.63;;
61640;SDS011;62201;49.966;8.342;2023-07-16T10:09:51;7.68;;;2.47;;
61640;SDS011;62201;49.966;8.342;2023-07-16T10:12:18;10.15;;;3.05;;
61640;SDS011;62201;49.966;8.342;2023-07-16T10:14:49;8.90;;;2.80;;
61640;SDS011;62201;49.966;8.342;2023-07-16T10:17:22;8.38;;;2.22;;
61640;SDS011;62201;49.966;8.342;2023-07-16T10:19:49;7.72;;;2.47;;
61640;SDS011;62201;49.966;8.342;2023-07-16T10:22:38;7.63;;;2.45;;
61640;SDS011;62201;49.966;8.342;2023-07-16T10:27:33;6.00;;;2.17;;
61640;SDS011;62201;49.966;8.342;2023-07-16T10:30:00;8.85;;;2.38;;
61640;SDS011;62201;49.966;8.342;2023-07-16T10:32:28;7.50;;;2.15;;
61640;SDS011;62201;49.966;8.342;2023-07-16T10:34:54;8.88;;;2.60;;
61640;SDS011;62201;49.966;8.342;2023-07-16T10:37:20;5.65;;;2.45;;
61640;SDS011;62201;49.966;8.342;2023-07-16T10:39:46;7.47;;;2.38;;
61640;SDS011;62201;49.966;8.342;2023-07-16T10:42:13;5.30;;;2.47;;
61640;SDS011;62201;49.966;8.342;2023-07-16T10:44:39;6.20;;;1.95;;
61640;SDS011;62201;49.966;8.342;2023-07-16T10:47:05;7.15;;;2.53;;
61640;SDS011;62201;49.966;8.342;2023-07-16T10:49:30;6.13;;;2.47;;
61640;SDS011;62201;49.966;8.342;2023-07-16T10:51:57;7.47;;;2.00;;
61640;SDS011;62201;49.966;8.342;2023-07-16T10:54:25;8.23;;;2.08;;
61640;SDS011;62201;49.966;8.342;2023-07-16T10:56:51;7.28;;;2.17;;
61640;SDS011;62201;49.966;8.342;2023-07-16T10:59:16;5.00;;;2.35;;
61640;SDS011;62201;49.966;8.342;2023-07-16T11:01:42;10.77;;;2.15;;
61640;SDS011;62201;49.966;8.342;2023-07-16T11:04:08;7.10;;;2.55;;
61640;SDS011;62201;49.966;8.342;2023-07-16T11:06:34;7.85;;;2.47;;
61640;SDS011;62201;49.966;8.342;2023-07-16T11:09:09;4.43;;;2.08;;
61640;SDS011;62201;49.966;8.342;2023-07-16T11:11:35;6.20;;;2.17;;
61640;SDS011;62201;49.966;8.342;2023-07-16T11:14:03;4.97;;;2.35;;
61640;SDS011;62201;49.966;8.342;2023-07-16T11:16:33;4.88;;;2.30;;
61640;SDS011;62201;49.966;8.342;2023-07-16T11:19:03;6.00;;;2.30;;
61640;SDS011;62201;49.966;8.342;2023-07-16T11:21:30;4.35;;;2.28;;
61640;SDS011;62201;49.966;8.342;2023-07-16T11:24:07;7.10;;;2.15;;
61640;SDS011;62201;49.966;8.342;2023-07-16T11:26:33;7.53;;;2.63;;
61640;SDS011;62201;49.966;8.342;2023-07-16T11:28:59;5.72;;;2.20;;
61640;SDS011;62201;49.966;8.342;2023-07-16T11:31:24;6.20;;;2.30;;
61640;SDS011;62201;49.966;8.342;2023-07-16T11:33:49;7.55;;;2.13;;
61640;SDS011;62201;49.966;8.342;2023-07-16T11:36:16;6.63;;;2.50;;
61640;SDS011;62201;49.966;8.342;2023-07-16T11:38:41;8.63;;;2.50;;
61640;SDS011;62201;49.966;8.342;2023-07-16T11:41:07;5.03;;;2.20;;
61640;SDS011;62201;49.966;8.342;2023-07-16T11:43:36;6.38;;;2.58;;
61640;SDS011;62201;49.966;8.342;2023-07-16T11:46:02;6.53;;;2.35;;
61640;SDS011;62201;49.966;8.342;2023-07-16T11:48:28;3.92;;;2.03;;
61640;SDS011;62201;49.966;8.342;2023-07-16T11:50:54;9.90;;;2.35;;
61640;SDS011;62201;49.966;8.342;2023-07-16T11:53:19;6.57;;;2.47;;
61640;SDS011;62201;49.966;8.342;2023-07-16T11:55:45;7.65;;;2.40;;
61640;SDS011;62201;49.966;8.342;2023-07-16T11:58:10;6.57;;;2.53;;
61640;SDS011;62201;49.966;8.342;2023-07-16T12:00:36;5.13;;;2.08;;
61640;SDS011;62201;49.966;8.342;2023-07-16T12:03:01;6.93;;;2.28;;
61640;SDS011;62201;49.966;8.342;2023-07-16T12:05:26;7.78;;;2.50;;
61640;SDS011;62201;49.966;8.342;2023-07-16T12:07:53;7.45;;;2.50;;
61640;SDS011;62201;49.966;8.342;2023-07-16T12:10:20;4.07;;;2.03;;
61640;SDS011;62201;49.966;8.342;2023-07-16T12:12:45;9.88;;;3.10;;
61640;SDS011;62201;49.966;8.342;2023-07-16T12:15:11;6.13;;;2.47;;
61640;SDS011;62201;49.966;8.342;2023-07-16T12:17:37;5.65;;;2.40;;
61640;SDS011;62201;49.966;8.342;2023-07-16T12:20:03;5.38;;;2.75;;
61640;SDS011;62201;49.966;8.342;2023-07-16T12:22:29;4.85;;;2.35;;
61640;SDS011;62201;49.966;8.342;2023-07-16T12:24:54;6.30;;;2.90;;
61640;SDS011;62201;49.966;8.342;2023-07-16T12:27:20;6.15;;;2.65;;
61640;SDS011;62201;49.966;8.342;2023-07-16T12:29:46;9.75;;;2.95;;
61640;SDS011;62201;49.966;8.342;2023-07-16T12:32:12;13.73;;;3.05;;
61640;SDS011;62201;49.966;8.342;2023-07-16T12:34:38;6.88;;;3.00;;
61640;SDS011;62201;49.966;8.342;2023-07-16T12:37:04;6.80;;;2.60;;
61640;SDS011;62201;49.966;8.342;2023-07-16T12:39:29;8.20;;;2.75;;
61640;SDS011;62201;49.966;8.342;2023-07-16T12:41:55;4.78;;;2.33;;
61640;SDS011;62201;49.966;8.342;2023-07-16T12:44:20;5.65;;;2.60;;
61640;SDS011;62201;49.966;8.342;2023-07-16T12:46:45;6.10;;;3.20;;
61640;SDS011;62201;49.966;8.342;2023-07-16T12:49:11;4.68;;;2.63;;
61640;SDS011;62201;49.966;8.342;2023-07-16T12:51:36;5.65;;;2.50;;
61640;SDS011;62201;49.966;8.342;2023-07-16T12:54:02;5.28;;;2.92;;
61640;SDS011;62201;49.966;8.342;2023-07-16T12:56:27;4.18;;;2.72;;
61640;SDS011;62201;49.966;8.342;2023-07-16T12:58:53;9.07;;;3.25;;
61640;SDS011;62201;49.966;8.342;2023-07-16T13:01:18;5.60;;;3.10;;
61640;SDS011;62201;49.966;8.342;2023-07-16T13:03:43;7.28;;;3.42;;
61640;SDS011;62201;49.966;8.342;2023-07-16T13:06:09;6.85;;;3.13;;
61640;SDS011;62201;49.966;8.342;2023-07-16T13:08:34;9.48;;;3.28;;
61640;SDS011;62201;49.966;8.342;2023-07-16T13:11:00;8.30;;;2.92;;
61640;SDS011;62201;49.966;8.342;2023-07-16T13:13:25;9.40;;;3.35;;
61640;SDS011;62201;49.966;8.342;2023-07-16T13:15:51;8.25;;;2.80;;
61640;SDS011;62201;49.966;8.342;2023-07-16T13:18:16;6.28;;;2.83;;
61640;SDS011;62201;49.966;8.342;2023-07-16T13:20:43;10.52;;;3.20;;
61640;SDS011;62201;49.966;8.342;2023-07-16T13:23:08;7.82;;;2.80;;
61640;SDS011;62201;49.966;8.342;2023-07-16T13:25:34;6.20;;;2.97;;
61640;SDS011;62201;49.966;8.342;2023-07-16T13:28:00;7.53;;;2.83;;
61640;SDS011;62201;49.966;8.342;2023-07-16T13:30:26;6.57;;;3.00;;
61640;SDS011;62201;49.966;8.342;2023-07-16T13:32:52;4.93;;;3.13;;
61640;SDS011;62201;49.966;8.342;2023-07-16T13:35:20;4.75;;;2.90;;
61640;SDS011;62201;49.966;8.342;2023-07-16T13:37:45;5.85;;;3.47;;
61640;SDS011;62201;49.966;8.342;2023-07-16T13:40:11;4.57;;;3.03;;
61640;SDS011;62201;49.966;8.342;2023-07-16T13:42:37;6.72;;;3.55;;
61640;SDS011;62201;49.966;8.342;2023-07-16T13:45:02;6.18;;;3.13;;
61640;SDS011;62201;49.966;8.342;2023-07-16T13:47:28;9.90;;;3.30;;
61640;SDS011;62201;49.966;8.342;2023-07-16T13:49:53;6.20;;;3.05;;
61640;SDS011;62201;49.966;8.342;2023-07-16T13:52:19;7.75;;;3.63;;
61640;SDS011;62201;49.966;8.342;2023-07-16T13:54:44;6.40;;;3.40;;
61640;SDS011;62201;49.966;8.342;2023-07-16T13:57:09;8.02;;;3.30;;
61640;SDS011;62201;49.966;8.342;2023-07-16T13:59:35;6.78;;;4.32;;
61640;SDS011;62201;49.966;8.342;2023-07-16T14:02:01;6.78;;;3.95;;
61640;SDS011;62201;49.966;8.342;2023-07-16T14:04:28;6.38;;;3.83;;
61640;SDS011;62201;49.966;8.342;2023-07-16T14:06:53;8.43;;;4.35;;
61640;SDS011;62201;49.966;8.342;2023-07-16T14:09:20;6.90;;;3.63;;
61640;SDS011;62201;49.966;8.342;2023-07-16T14:11:45;6.85;;;3.75;;
61640;SDS011;62201;49.966;8.342;2023-07-16T14:14:15;8.68;;;3.60;;
61640;SDS011;62201;49.966;8.342;2023-07-16T14:16:46;5.35;;;3.53;;
61640;SDS011;62201;49.966;8.342;2023-07-16T14:19:11;9.65;;;3.80;;
61640;SDS011;62201;49.966;8.342;2023-07-16T14:21:39;9.50;;;3.58;;
61640;SDS011;62201;49.966;8.342;2023-07-16T14:24:05;7.28;;;3.05;;
61640;SDS011;62201;49.966;8.342;2023-07-16T14:26:31;4.90;;;3.47;;
61640;SDS011;62201;49.966;8.342;2023-07-16T14:28:56;5.82;;;3.13;;
61640;SDS011;62201;49.966;8.342;2023-07-16T14:31:21;5.22;;;3.10;;
61640;SDS011;62201;49.966;8.342;2023-07-16T14:33:47;9.10;;;3.30;;
61640;SDS011;62201;49.966;8.342;2023-07-16T14:36:12;7.85;;;3.40;;
61640;SDS011;62201;49.966;8.342;2023-07-16T14:38:37;8.00;;;3.92;;
61640;SDS011;62201;49.966;8.342;2023-07-16T14:41:03;7.40;;;4.20;;
61640;SDS011;62201;49.966;8.342;2023-07-16T14:43:29;6.65;;;3.63;;
61640;SDS011;62201;49.966;8.342;2023-07-16T14:45:55;8.75;;;4.13;;
61640;SDS011;62201;49.966;8.342;2023-07-16T14:48:20;6.25;;;3.65;;